createdAt,value
2019-03-25T00:00:42.211Z,100759.95
2019-03-25T00:03:15.597Z,100757.84
2019-03-25T00:05:48.436Z,100758.34
2019-03-25T00:08:19.447Z,100756.66
2019-03-25T00:10:50.762Z,100756.37
2019-03-25T00:13:22.873Z,100753.37
2019-03-25T00:15:56.418Z,100749.77
2019-03-25T00:18:28.531Z,100750.94
2019-03-25T00:21:00.135Z,100749.81
2019-03-25T00:23:31.243Z,100743.39
2019-03-25T00:26:02.544Z,100740.70
2019-03-25T00:28:35.415Z,100739.84
2019-03-25T00:31:06.763Z,100736.31
2019-03-25T00:33:37.955Z,100736.50
2019-03-25T00:36:09.224Z,100730.34
2019-03-25T00:38:40.271Z,100730.69
2019-03-25T00:41:11.291Z,100724.25
2019-03-25T00:43:42.524Z,100720.05
2019-03-25T00:46:13.708Z,100713.80
2019-03-25T00:48:44.772Z,100711.87
2019-03-25T00:51:16.975Z,100718.39
2019-03-25T00:53:48.164Z,100718.02
2019-03-25T00:56:19.407Z,100717.30
2019-03-25T00:58:50.575Z,100713.95
2019-03-25T01:01:21.807Z,100709.97
2019-03-25T01:03:52.894Z,100709.89
2019-03-25T01:06:24.083Z,100710.78
2019-03-25T01:08:55.396Z,100715.11
2019-03-25T01:11:26.526Z,100716.70
2019-03-25T01:13:57.835Z,100718.85
2019-03-25T01:16:29.268Z,100727.97
2019-03-25T01:19:00.526Z,100726.28
2019-03-25T01:21:31.733Z,100717.09
2019-03-25T01:24:02.834Z,100713.73
2019-03-25T01:26:34.111Z,100717.62
2019-03-25T01:29:05.202Z,100716.25
2019-03-25T01:31:36.485Z,100711.92
2019-03-25T01:34:07.586Z,100705.83
2019-03-25T01:36:38.857Z,100707.65
2019-03-25T01:39:11.114Z,100705.42
2019-03-25T01:41:42.155Z,100705.88
2019-03-25T01:44:14.229Z,100702.30
2019-03-25T01:46:46.522Z,100700.30
2019-03-25T01:49:17.623Z,100704.84
2019-03-25T01:51:48.809Z,100702.19
2019-03-25T01:54:20.116Z,100701.83
2019-03-25T01:56:52.407Z,100709.97
2019-03-25T01:59:23.503Z,100701.68
2019-03-25T02:01:54.622Z,100702.05
2019-03-25T02:04:25.761Z,100700.34
2019-03-25T02:06:56.797Z,100709.91
2019-03-25T02:09:27.854Z,100703.53
2019-03-25T02:11:59.306Z,100700.04
2019-03-25T02:14:33.282Z,100696.98
2019-03-25T02:17:04.439Z,100703.53
2019-03-25T02:19:35.557Z,100694.98
2019-03-25T02:22:06.659Z,100693.63
2019-03-25T02:24:37.743Z,100693.12
2019-03-25T02:27:09.046Z,100692.16
2019-03-25T02:29:40.068Z,100688.63
2019-03-25T02:32:13.921Z,100686.92
2019-03-25T02:34:44.076Z,100683.72
2019-03-25T02:37:15.303Z,100680.48
2019-03-25T02:39:46.741Z,100677.19
2019-03-25T02:42:17.745Z,100682.99
2019-03-25T02:44:48.898Z,100685.72
2019-03-25T02:47:20.314Z,100686.73
2019-03-25T02:49:51.427Z,100685.42
2019-03-25T02:52:22.498Z,100684.34
2019-03-25T02:54:53.597Z,100692.25
2019-03-25T02:57:24.747Z,100690.33
2019-03-25T02:59:55.844Z,100694.56
2019-03-25T03:02:26.912Z,100689.69
2019-03-25T03:04:58.064Z,100694.02
2019-03-25T03:07:29.234Z,100697.30
2019-03-25T03:10:00.614Z,100711.23
2019-03-25T03:12:31.649Z,100714.66
2019-03-25T03:15:02.749Z,100709.19
2019-03-25T03:17:34.561Z,100707.48
2019-03-25T03:20:07.173Z,100704.30
2019-03-25T03:22:40.320Z,100699.13
2019-03-25T03:25:11.483Z,100699.34
2019-03-25T03:27:43.673Z,100704.91
2019-03-25T03:30:15.160Z,100708.41
2019-03-25T03:32:46.504Z,100706.80
2019-03-25T03:35:17.880Z,100703.88
2019-03-25T03:37:48.970Z,100704.04
2019-03-25T03:40:20.080Z,100709.67
2019-03-25T03:42:51.152Z,100716.56
2019-03-25T03:45:22.295Z,100716.66
2019-03-25T03:47:53.454Z,100707.72
2019-03-25T03:50:26.382Z,100716.87
2019-03-25T03:52:57.865Z,100709.93
2019-03-25T03:55:29.033Z,100709.84
2019-03-25T03:58:00.097Z,100719.38
2019-03-25T04:00:32.843Z,100716.71
2019-03-25T04:03:03.854Z,100720.48
2019-03-25T04:05:34.997Z,100723.59
2019-03-25T04:08:06.244Z,100723.90
2019-03-25T04:10:37.375Z,100718.34
2019-03-25T04:13:08.353Z,100721.21
2019-03-25T04:15:39.730Z,100721.75
2019-03-25T04:18:10.994Z,100724.41
2019-03-25T04:20:42.020Z,100717.73
2019-03-25T04:23:13.125Z,100720.75
2019-03-25T04:25:44.177Z,100718.34
2019-03-25T04:28:15.327Z,100716.98
2019-03-25T04:30:46.436Z,100716.17
2019-03-25T04:33:17.958Z,100711.19
2019-03-25T04:35:49.027Z,100713.35
2019-03-25T04:38:20.038Z,100712.74
2019-03-25T04:40:51.199Z,100705.64
2019-03-25T04:43:22.703Z,100704.66
2019-03-25T04:45:53.993Z,100699.98
2019-03-25T04:48:25.198Z,100701.02
2019-03-25T04:50:56.379Z,100695.18
2019-03-25T04:53:27.513Z,100691.90
2019-03-25T04:56:01.912Z,100698.22
2019-03-25T04:58:33.044Z,100698.52
2019-03-25T05:01:04.119Z,100700.31
2019-03-25T05:03:35.083Z,100704.34
2019-03-25T05:06:07.262Z,100702.92
2019-03-25T05:08:38.337Z,100701.63
2019-03-25T05:11:11.779Z,100699.55
2019-03-25T05:13:43.008Z,100698.86
2019-03-25T05:16:15.197Z,100693.52
2019-03-25T05:18:46.380Z,100690.73
2019-03-25T05:21:17.667Z,100696.48
2019-03-25T05:23:50.139Z,100692.55
2019-03-25T05:26:21.350Z,100694.37
2019-03-25T05:28:52.783Z,100693.75
2019-03-25T05:31:24.978Z,100689.97
2019-03-25T05:33:56.250Z,100686.66
2019-03-25T05:36:27.716Z,100678.69
2019-03-25T05:38:58.884Z,100678.32
2019-03-25T05:41:29.851Z,100677.33
2019-03-25T05:44:01.001Z,100677.88
2019-03-25T05:46:32.234Z,100674.22
2019-03-25T05:49:03.533Z,100675.53
2019-03-25T05:51:34.730Z,100677.76
2019-03-25T05:54:05.842Z,100675.40
2019-03-25T05:56:36.951Z,100680.98
2019-03-25T05:59:08.013Z,100688.91
2019-03-25T06:01:39.093Z,100684.20
2019-03-25T06:04:10.082Z,100678.62
2019-03-25T06:06:41.207Z,100682.38
2019-03-25T06:09:14.115Z,100688.59
2019-03-25T06:11:45.219Z,100686.73
2019-03-25T06:14:16.237Z,100688.27
2019-03-25T06:16:47.472Z,100681.88
2019-03-25T06:19:18.780Z,100680.13
2019-03-25T06:21:51.055Z,100681.22
2019-03-25T06:24:22.131Z,100679.94
2019-03-25T06:26:53.349Z,100680.10
2019-03-25T06:29:26.062Z,100676.23
2019-03-25T06:31:57.187Z,100679.84
2019-03-25T06:34:28.164Z,100674.31
2019-03-25T06:37:01.183Z,100670.71
2019-03-25T06:39:32.303Z,100666.04
2019-03-25T06:42:03.465Z,100671.92
2019-03-25T06:44:34.810Z,100679.70
2019-03-25T06:47:05.983Z,100674.44
2019-03-25T06:49:37.166Z,100680.52
2019-03-25T06:52:08.284Z,100682.49
2019-03-25T06:54:39.296Z,100676.78
2019-03-25T06:57:10.361Z,100686.73
2019-03-25T06:59:41.454Z,100675.34
2019-03-25T07:02:12.495Z,100675.86
2019-03-25T07:04:43.607Z,100675.48
2019-03-25T07:07:14.691Z,100678.56
2019-03-25T07:09:45.720Z,100675.84
2019-03-25T07:12:16.957Z,100667.89
2019-03-25T07:14:48.129Z,100664.34
2019-03-25T07:17:21.410Z,100662.06
2019-03-25T07:19:53.588Z,100662.03
2019-03-25T07:22:24.751Z,100658.29
2019-03-25T07:24:55.952Z,100649.49
2019-03-25T07:27:36.377Z,100653.16
2019-03-25T07:29:59.844Z,100651.45
2019-03-25T07:32:30.998Z,100649.80
2019-03-25T07:35:02.036Z,100647.68
2019-03-25T07:37:33.126Z,100647.06
2019-03-25T07:40:07.756Z,100647.40
2019-03-25T07:42:39.010Z,100648.56
2019-03-25T07:45:10.113Z,100640.10
2019-03-25T07:47:41.330Z,100631.96
2019-03-25T07:50:12.501Z,100629.11
2019-03-25T07:52:43.726Z,100627.44
2019-03-25T07:55:14.738Z,100621.41
2019-03-25T07:57:48.609Z,100614.47
2019-03-25T08:00:20.404Z,100618.19
2019-03-25T08:02:51.581Z,100613.05
2019-03-25T08:05:22.849Z,100617.19
2019-03-25T08:07:53.890Z,100611.85
2019-03-25T08:10:34.980Z,100604.78
2019-03-25T08:13:06.063Z,100612.92
2019-03-25T08:15:37.231Z,100612.94
2019-03-25T08:18:08.398Z,100611.80
2019-03-25T08:20:39.536Z,100619.69
2019-03-25T08:23:10.697Z,100617.69
2019-03-25T08:25:41.706Z,100622.05
2019-03-25T08:28:12.969Z,100623.22
2019-03-25T08:30:44.041Z,100624.63
2019-03-25T08:33:15.158Z,100637.48
2019-03-25T08:35:46.278Z,100640.64
2019-03-25T08:38:17.514Z,100630.13
2019-03-25T08:40:49.735Z,100632.86
2019-03-25T08:43:21.320Z,100640.70
2019-03-25T08:45:52.538Z,100648.92
2019-03-25T08:48:24.145Z,100645.98
2019-03-25T08:50:58.079Z,100648.80
2019-03-25T08:53:29.300Z,100649.05
2019-03-25T08:56:00.501Z,100644.83
2019-03-25T08:58:31.715Z,100647.95
2019-03-25T09:01:02.874Z,100640.80
2019-03-25T09:03:33.975Z,100640.50
2019-03-25T09:06:05.070Z,100640.58
2019-03-25T09:08:36.305Z,100643.14
2019-03-25T09:11:07.370Z,100638.99
2019-03-25T09:13:38.509Z,100623.27
2019-03-25T09:16:09.558Z,100615.55
2019-03-25T09:18:40.967Z,100619.11
2019-03-25T09:21:12.132Z,100619.18
2019-03-25T09:23:43.160Z,100617.11
2019-03-25T09:26:14.272Z,100617.69
2019-03-25T09:28:45.260Z,100625.38
2019-03-25T09:31:16.763Z,100622.23
2019-03-25T09:33:49.439Z,100610.87
2019-03-25T09:36:20.559Z,100600.67
2019-03-25T09:38:51.687Z,100599.05
2019-03-25T09:41:24.442Z,100596.13
2019-03-25T09:43:55.499Z,100583.83
2019-03-25T09:46:26.598Z,100589.00
2019-03-25T09:48:57.771Z,100590.62
2019-03-25T09:51:28.885Z,100591.34
2019-03-25T09:53:59.965Z,100572.19
2019-03-25T09:56:31.099Z,100576.13
2019-03-25T09:59:02.335Z,100568.57
2019-03-25T10:01:34.630Z,100568.77
2019-03-25T10:04:05.826Z,100563.53
2019-03-25T10:06:37.046Z,100561.03
2019-03-25T10:09:09.823Z,100559.46
2019-03-25T10:11:40.955Z,100563.67
2019-03-25T10:14:11.981Z,100566.71
2019-03-25T10:16:43.068Z,100571.58
2019-03-25T10:19:14.095Z,100568.73
2019-03-25T10:21:45.091Z,100571.56
2019-03-25T10:24:17.314Z,100563.17
2019-03-25T10:26:48.436Z,100565.83
2019-03-25T10:29:19.598Z,100564.13
2019-03-25T10:31:50.657Z,100569.56
2019-03-25T10:34:21.913Z,100560.86
2019-03-25T10:36:53.233Z,100547.92
2019-03-25T10:39:24.323Z,100542.44
2019-03-25T10:41:55.409Z,100554.11
2019-03-25T10:44:26.590Z,100544.09
2019-03-25T10:46:57.722Z,100534.55
2019-03-25T10:49:28.983Z,100527.69
2019-03-25T10:51:59.986Z,100530.34
2019-03-25T10:54:31.181Z,100525.92
2019-03-25T10:57:02.368Z,100523.77
2019-03-25T10:59:33.501Z,100524.73
2019-03-25T11:02:04.916Z,100511.18
2019-03-25T11:04:36.028Z,100511.77
2019-03-25T11:07:07.295Z,100503.44
2019-03-25T11:09:41.052Z,100495.00
2019-03-25T11:12:12.460Z,100489.55
2019-03-25T11:14:43.615Z,100485.64
2019-03-25T11:17:14.885Z,100480.89
2019-03-25T11:19:45.895Z,100468.11
2019-03-25T11:22:16.964Z,100465.77
2019-03-25T11:24:48.145Z,100454.52
2019-03-25T11:27:19.358Z,100453.12
2019-03-25T11:29:50.514Z,100452.40
2019-03-25T11:32:21.538Z,100452.62
2019-03-25T11:34:52.744Z,100452.94
2019-03-25T11:37:23.863Z,100452.56
2019-03-25T11:39:55.012Z,100434.58
2019-03-25T11:42:26.060Z,100435.31
2019-03-25T11:44:57.349Z,100426.55
2019-03-25T11:47:28.680Z,100428.05
2019-03-25T11:50:00.317Z,100427.45
2019-03-25T11:52:31.383Z,100423.27
2019-03-25T11:55:02.660Z,100421.35
2019-03-25T11:57:33.983Z,100419.58
2019-03-25T12:00:10.430Z,100412.70
2019-03-25T12:02:44.858Z,100412.58
2019-03-25T12:05:16.172Z,100413.55
2019-03-25T12:07:51.042Z,100414.70
2019-03-25T12:10:24.116Z,100410.24
2019-03-25T12:12:55.796Z,100410.41
2019-03-25T12:15:26.986Z,100406.28
2019-03-25T12:18:06.239Z,100398.14
2019-03-25T12:20:38.724Z,100398.14
2019-03-25T12:23:14.542Z,100401.62
2019-03-25T12:25:48.273Z,100405.09
2019-03-25T12:28:20.863Z,100403.44
2019-03-25T12:31:01.331Z,100397.67
2019-03-25T12:33:33.269Z,100399.23
2019-03-25T12:36:04.730Z,100392.25
2019-03-25T12:38:37.737Z,100401.53
2019-03-25T12:41:09.034Z,100398.88
2019-03-25T12:43:40.527Z,100394.64
2019-03-25T12:46:11.667Z,100392.84
2019-03-25T12:48:42.797Z,100386.28
2019-03-25T12:51:14.075Z,100383.74
2019-03-25T12:53:45.581Z,100380.48
2019-03-25T12:56:16.807Z,100378.31
2019-03-25T12:58:47.980Z,100373.38
2019-03-25T13:01:23.587Z,100372.38
2019-03-25T13:03:54.987Z,100377.42
2019-03-25T13:06:26.137Z,100373.20
2019-03-25T13:09:00.379Z,100375.80
2019-03-25T13:11:31.774Z,100368.89
2019-03-25T13:14:03.056Z,100357.82
2019-03-25T13:16:34.368Z,100351.10
2019-03-25T13:19:05.568Z,100354.00
2019-03-25T13:21:36.922Z,100352.31
2019-03-25T13:24:10.367Z,100347.32
2019-03-25T13:26:41.631Z,100355.82
2019-03-25T13:29:14.292Z,100358.41
2019-03-25T13:31:45.642Z,100356.41
2019-03-25T13:34:16.809Z,100348.60
2019-03-25T13:36:47.966Z,100343.89
2019-03-25T13:39:20.191Z,100355.13
2019-03-25T13:41:51.394Z,100352.83
2019-03-25T13:44:22.663Z,100352.83
2019-03-25T13:46:54.518Z,100345.01
2019-03-25T13:49:25.738Z,100343.99
2019-03-25T13:51:56.918Z,100339.92
2019-03-25T13:54:27.967Z,100333.69
2019-03-25T13:57:04.089Z,100339.11
2019-03-25T13:59:41.762Z,100336.70
2019-03-25T14:02:12.885Z,100342.30
2019-03-25T14:04:43.986Z,100346.86
2019-03-25T14:07:16.004Z,100339.38
2019-03-25T14:09:50.143Z,100349.88
2019-03-25T14:12:21.568Z,100346.96
2019-03-25T14:14:52.625Z,100350.77
2019-03-25T14:17:23.845Z,100352.02
2019-03-25T14:19:54.862Z,100358.25
2019-03-25T14:22:26.052Z,100351.07
2019-03-25T14:24:57.062Z,100349.30
2019-03-25T14:27:28.225Z,100357.62
2019-03-25T14:29:59.373Z,100357.44
2019-03-25T14:32:30.603Z,100361.76
2019-03-25T14:35:01.737Z,100347.20
2019-03-25T14:37:34.777Z,100345.03
2019-03-25T14:40:07.865Z,100341.90
2019-03-25T14:42:45.500Z,100343.91
2019-03-25T14:45:26.115Z,100355.47
2019-03-25T14:47:53.614Z,100349.58
2019-03-25T14:50:26.180Z,100343.19
2019-03-25T14:52:57.499Z,100332.87
2019-03-25T14:55:31.269Z,100327.36
2019-03-25T14:58:02.553Z,100327.84
2019-03-25T15:00:33.677Z,100322.45
2019-03-25T15:03:05.044Z,100318.84
2019-03-25T15:05:36.281Z,100320.55
2019-03-25T15:08:07.300Z,100314.58
2019-03-25T15:10:38.355Z,100316.77
2019-03-25T15:13:09.496Z,100318.09
2019-03-25T15:15:40.663Z,100313.97
2019-03-25T15:18:15.821Z,100308.48
2019-03-25T15:20:44.543Z,100313.77
2019-03-25T15:23:15.771Z,100313.50
2019-03-25T15:25:46.911Z,100318.69
2019-03-25T15:28:18.035Z,100320.58
2019-03-25T15:30:49.150Z,100319.53
2019-03-25T15:33:20.259Z,100327.56
2019-03-25T15:35:52.511Z,100324.34
2019-03-25T15:38:25.597Z,100319.33
2019-03-25T15:40:56.671Z,100323.77
2019-03-25T15:43:28.841Z,100313.03
2019-03-25T15:46:00.101Z,100317.84
2019-03-25T15:48:32.516Z,100318.48
2019-03-25T15:51:03.706Z,100321.13
2019-03-25T15:53:34.921Z,100309.23
2019-03-25T15:56:06.063Z,100311.41
2019-03-25T15:58:37.217Z,100310.18
2019-03-25T16:01:08.297Z,100308.28
2019-03-25T16:03:39.466Z,100307.53
2019-03-25T16:06:10.652Z,100303.47
2019-03-25T16:08:41.739Z,100302.08
2019-03-25T16:11:12.750Z,100293.73
2019-03-25T16:13:43.832Z,100302.83
2019-03-25T16:16:15.011Z,100300.18
2019-03-25T16:18:47.293Z,100298.55
2019-03-25T16:21:18.517Z,100304.52
2019-03-25T16:23:50.459Z,100299.81
2019-03-25T16:26:23.267Z,100306.05
2019-03-25T16:28:56.222Z,100304.41
2019-03-25T16:31:27.259Z,100303.57
2019-03-25T16:34:00.013Z,100304.69
2019-03-25T16:36:31.326Z,100306.68
2019-03-25T16:39:05.626Z,100306.00
2019-03-25T16:41:38.331Z,100304.98
2019-03-25T16:44:10.546Z,100296.02
2019-03-25T16:46:41.691Z,100301.67
2019-03-25T16:49:13.018Z,100304.52
2019-03-25T16:51:44.200Z,100300.92
2019-03-25T16:54:16.447Z,100302.62
2019-03-25T16:56:47.630Z,100308.21
2019-03-25T16:59:18.716Z,100308.27
2019-03-25T17:01:50.021Z,100316.58
2019-03-25T17:04:21.145Z,100308.09
2019-03-25T17:06:52.303Z,100314.27
2019-03-25T17:09:25.079Z,100327.47
2019-03-25T17:11:56.308Z,100328.89
2019-03-25T17:14:27.572Z,100330.78
2019-03-25T17:16:58.844Z,100337.17
2019-03-25T17:19:30.084Z,100348.48
2019-03-25T17:22:01.194Z,100352.03
2019-03-25T17:24:32.471Z,100355.67
2019-03-25T17:27:06.537Z,100372.48
2019-03-25T17:29:39.819Z,100369.56
2019-03-25T17:32:13.883Z,100371.83
2019-03-25T17:34:45.100Z,100370.41
2019-03-25T17:37:17.458Z,100375.80
2019-03-25T17:39:49.859Z,100382.56
2019-03-25T17:42:20.999Z,100385.43
2019-03-25T17:44:53.381Z,100393.83
2019-03-25T17:47:24.575Z,100390.10
2019-03-25T17:49:55.848Z,100394.19
2019-03-25T17:52:27.237Z,100387.02
2019-03-25T17:54:58.649Z,100386.47
2019-03-25T17:57:30.158Z,100385.22
2019-03-25T18:00:03.357Z,100378.55
2019-03-25T18:02:38.719Z,100375.29
2019-03-25T18:05:09.861Z,100365.64
2019-03-25T18:07:42.970Z,100366.48
2019-03-25T18:10:17.076Z,100363.30
2019-03-25T18:12:48.228Z,100362.23
2019-03-25T18:15:20.649Z,100356.95
2019-03-25T18:17:51.964Z,100356.62
2019-03-25T18:20:23.167Z,100357.03
2019-03-25T18:22:54.833Z,100353.46
2019-03-25T18:25:29.590Z,100343.98
2019-03-25T18:28:00.713Z,100348.88
2019-03-25T18:30:33.000Z,100355.08
2019-03-25T18:33:04.245Z,100357.62
2019-03-25T18:35:37.104Z,100356.02
2019-03-25T18:38:08.255Z,100356.00
2019-03-25T18:40:39.316Z,100353.36
2019-03-25T18:43:10.581Z,100347.46
2019-03-25T18:45:41.948Z,100345.30
2019-03-25T18:48:13.146Z,100345.17
2019-03-25T18:50:44.462Z,100341.44
2019-03-25T18:53:15.599Z,100336.27
2019-03-25T18:55:46.806Z,100341.22
2019-03-25T18:58:18.302Z,100327.27
2019-03-25T19:00:49.758Z,100329.97
2019-03-25T19:03:21.051Z,100327.34
2019-03-25T19:05:52.306Z,100327.72
2019-03-25T19:08:23.579Z,100327.70
2019-03-25T19:10:54.761Z,100329.50
2019-03-25T19:13:26.508Z,100327.08
2019-03-25T19:15:57.580Z,100322.04
2019-03-25T19:18:28.884Z,100328.25
2019-03-25T19:21:00.224Z,100322.36
2019-03-25T19:23:31.274Z,100329.23
2019-03-25T19:26:02.425Z,100332.78
2019-03-25T19:28:33.523Z,100327.43
2019-03-25T19:31:05.503Z,100318.58
2019-03-25T19:33:36.617Z,100325.28
2019-03-25T19:36:07.825Z,100318.16
2019-03-25T19:38:38.908Z,100322.61
2019-03-25T19:41:10.067Z,100320.63
2019-03-25T19:43:41.353Z,100310.73
2019-03-25T19:46:12.494Z,100312.40
2019-03-25T19:48:43.689Z,100313.09
2019-03-25T19:51:14.771Z,100310.64
2019-03-25T19:53:46.246Z,100317.73
2019-03-25T19:56:18.269Z,100307.10
2019-03-25T19:58:49.827Z,100308.74
2019-03-25T20:01:21.199Z,100307.02
2019-03-25T20:03:52.344Z,100308.73
2019-03-25T20:06:30.087Z,100308.67
2019-03-25T20:09:01.722Z,100315.80
2019-03-25T20:11:34.580Z,100312.06
2019-03-25T20:14:05.587Z,100327.73
2019-03-25T20:16:36.866Z,100328.42
2019-03-25T20:19:08.129Z,100324.73
2019-03-25T20:21:39.637Z,100322.21
2019-03-25T20:24:11.004Z,100327.48
2019-03-25T20:26:43.432Z,100330.11
2019-03-25T20:29:14.575Z,100322.21
2019-03-25T20:31:46.005Z,100326.72
2019-03-25T20:34:17.267Z,100327.15
2019-03-25T20:36:49.608Z,100322.91
2019-03-25T20:39:21.203Z,100317.01
2019-03-25T20:41:52.362Z,100315.22
2019-03-25T20:44:23.793Z,100313.30
2019-03-25T20:46:58.997Z,100305.63
2019-03-25T20:49:31.079Z,100304.39
2019-03-25T20:52:02.625Z,100291.91
2019-03-25T20:54:33.746Z,100284.81
2019-03-25T20:57:05.147Z,100286.80
2019-03-25T20:59:36.480Z,100292.70
2019-03-25T21:02:08.902Z,100301.37
2019-03-25T21:04:40.193Z,100311.27
2019-03-25T21:07:12.544Z,100297.56
2019-03-25T21:09:43.849Z,100285.02
2019-03-25T21:12:15.785Z,100290.13
2019-03-25T21:14:48.103Z,100288.81
2019-03-25T21:17:24.715Z,100290.29
2019-03-25T21:19:57.255Z,100280.40
2019-03-25T21:22:28.570Z,100274.80
2019-03-25T21:24:59.784Z,100278.83
2019-03-25T21:27:31.096Z,100265.13
2019-03-25T21:30:02.309Z,100272.34
2019-03-25T21:32:34.709Z,100272.89
2019-03-25T21:35:06.768Z,100269.30
2019-03-25T21:37:38.295Z,100257.53
2019-03-25T21:40:11.011Z,100258.08
2019-03-25T21:42:42.502Z,100259.53
2019-03-25T21:45:13.558Z,100262.17
2019-03-25T21:47:47.859Z,100261.40
2019-03-25T21:50:19.298Z,100266.20
2019-03-25T21:52:50.399Z,100277.87
2019-03-25T21:55:21.646Z,100281.44
2019-03-25T21:57:53.895Z,100303.03
2019-03-25T22:00:26.708Z,100299.34
2019-03-25T22:03:11.027Z,100296.84
2019-03-25T22:05:31.251Z,100284.53
2019-03-25T22:08:02.303Z,100289.50
2019-03-25T22:10:34.793Z,100293.58
2019-03-25T22:13:09.714Z,100293.66
2019-03-25T22:15:41.074Z,100293.48
2019-03-25T22:18:12.365Z,100280.41
2019-03-25T22:20:43.520Z,100283.14
2019-03-25T22:23:14.755Z,100277.97
2019-03-25T22:25:45.875Z,100277.33
2019-03-25T22:28:17.025Z,100274.86
2019-03-25T22:30:48.127Z,100280.42
2019-03-25T22:33:25.692Z,100280.03
2019-03-25T22:35:52.034Z,100289.45
2019-03-25T22:38:23.131Z,100285.56
2019-03-25T22:40:54.129Z,100290.81
2019-03-25T22:43:25.300Z,100298.83
2019-03-25T22:45:56.580Z,100305.66
2019-03-25T22:48:27.567Z,100299.47
2019-03-25T22:50:58.810Z,100303.86
2019-03-25T22:53:30.944Z,100287.16
2019-03-25T22:56:02.074Z,100285.09
2019-03-25T22:58:34.161Z,100287.26
2019-03-25T23:01:05.504Z,100290.27
2019-03-25T23:03:39.428Z,100287.41
2019-03-25T23:06:09.422Z,100284.83
2019-03-25T23:08:40.513Z,100292.52
2019-03-25T23:11:13.968Z,100291.22
2019-03-25T23:13:45.053Z,100302.66
2019-03-25T23:16:16.257Z,100302.00
2019-03-25T23:18:47.486Z,100293.32
2019-03-25T23:21:18.678Z,100302.33
2019-03-25T23:23:49.863Z,100291.86
2019-03-25T23:26:21.129Z,100297.38
2019-03-25T23:28:53.300Z,100296.38
2019-03-25T23:31:24.394Z,100304.45
2019-03-25T23:33:55.579Z,100305.08
2019-03-25T23:36:26.805Z,100319.02
2019-03-25T23:38:58.026Z,100315.46
2019-03-25T23:41:29.241Z,100313.14
2019-03-25T23:44:00.325Z,100307.59
2019-03-25T23:46:31.395Z,100314.16
2019-03-25T23:49:02.537Z,100318.48
2019-03-25T23:51:33.638Z,100320.48
2019-03-25T23:54:14.643Z,100318.36
2019-03-25T23:56:46.056Z,100320.22
2019-03-25T23:59:17.160Z,100321.92
